Time;durP1;ratioP1;P1;durP2;ratioP2;P2;SDS_P1;SDS_P2;PMS_P1;PMS_P2;Temp;Humidity;BMP_temperature;BMP_pressure;BME280_temperature;BME280_humidity;BME280_pressure;Samples;Min_cycle;Max_cycle;Signal;HPM_P1;HPM_P2
2022/05/10 00:00:23;;;;;;;;;;;;;;;14.73;62.13;101622.31;5066382;28;20014;-78
2022/05/10 00:02:52;;;;;;;;;;;;;;;14.78;61.19;101623.06;5081149;28;19924;-78
2022/05/10 00:05:19;;;;;;;;;;;;;;;14.76;62.25;101614.41;5086204;28;19931;-78
2022/05/10 00:07:45;;;;;;;;;;;;;;;14.75;61.58;101614.44;5083940;28;19920;-77
2022/05/10 00:10:10;;;;;;;;;;;;;;;14.71;61.99;101618.00;5081901;28;19927;-77
2022/05/10 00:12:36;;;;;;;;;;;;;;;14.73;61.86;101616.22;5066686;28;20438;-77
2022/05/10 00:15:02;;;;;;;;;;;;;;;14.67;62.86;101614.59;5066478;28;20710;-77
2022/05/10 00:17:30;;;;;;;;;;;;;;;14.68;62.22;101615.47;5080955;28;19916;-77
2022/05/10 00:19:56;;;;;;;;;;;;;;;14.59;63.01;101619.13;5086007;28;19919;-77
2022/05/10 00:22:21;;;;;;;;;;;;;;;14.61;63.36;101619.13;5083608;28;19953;-77
2022/05/10 00:24:47;;;;;;;;;;;;;;;14.60;62.80;101613.03;5083717;28;20412;-77
2022/05/10 00:27:12;;;;;;;;;;;;;;;14.56;63.38;101615.75;5084681;28;19973;-78
2022/05/10 00:29:37;;;;;;;;;;;;;;;14.53;63.33;101621.91;5087425;28;19956;-78
2022/05/10 00:32:03;;;;;;;;;;;;;;;14.51;63.69;101613.25;5092584;28;20381;-78
2022/05/10 00:34:29;;;;;;;;;;;;;;;14.50;63.05;101614.13;5071966;28;19998;-78
2022/05/10 00:36:54;;;;;;;;;;;;;;;14.47;62.99;101611.63;5086253;28;19925;-78
2022/05/10 00:39:19;;;;;;;;;;;;;;;14.39;62.69;101610.91;5089182;28;19927;-78
2022/05/10 00:41:49;;;;;;;;;;;;;;;14.35;62.97;101606.66;5081880;28;20296;-78
2022/05/10 00:44:20;;;;;;;;;;;;;;;14.39;62.59;101607.44;5084837;28;20556;-78
2022/05/10 00:46:48;;;;;;;;;;;;;;;14.39;62.73;101603.06;5070820;28;20015;-78
2022/05/10 00:49:29;;;;;;;;;;;;;;;14.35;62.85;101606.66;5081075;28;19920;-78
2022/05/10 00:52:08;;;;;;;;;;;;;;;14.32;62.61;101599.72;5088258;28;19968;-75
2022/05/10 00:54:34;;;;;;;;;;;;;;;14.31;62.83;101594.56;5063935;28;19935;-77
2022/05/10 00:57:12;;;;;;;;;;;;;;;14.21;63.02;101593.03;5066735;28;20296;-77
2022/05/10 00:59:53;;;;;;;;;;;;;;;14.24;63.00;101598.19;5067290;28;19922;-77
2022/05/10 01:02:30;;;;;;;;;;;;;;;14.16;63.80;101607.97;5083974;28;19926;-77
2022/05/10 01:04:58;;;;;;;;;;;;;;;14.13;63.53;101602.81;5081065;28;20070;-77
2022/05/10 01:07:27;;;;;;;;;;;;;;;14.21;63.66;101595.66;5083384;28;19921;-77
2022/05/10 01:09:54;;;;;;;;;;;;;;;14.20;63.89;101602.66;5079931;28;19928;-77
2022/05/10 01:12:35;;;;;;;;;;;;;;;14.19;64.85;101600.06;5051024;28;19924;-75
2022/05/10 01:15:12;;;;;;;;;;;;;;;14.17;64.95;101605.34;5083359;28;20416;-75
2022/05/10 01:17:38;;;;;;;;;;;;;;;14.09;65.44;101598.53;5087733;28;19923;-75
2022/05/10 01:20:04;;;;;;;;;;;;;;;14.17;65.16;101596.63;5087321;28;19924;-75
2022/05/10 01:22:33;;;;;;;;;;;;;;;14.18;65.48;101585.25;5086148;28;19928;-75
2022/05/10 01:24:58;;;;;;;;;;;;;;;14.10;65.50;101585.44;5077582;28;19928;-75
2022/05/10 01:27:42;;;;;;;;;;;;;;;14.09;65.37;101588.94;5092178;28;19977;-78
2022/05/10 01:30:09;;;;;;;;;;;;;;;14.08;65.30;101586.38;5083279;28;20475;-78
2022/05/10 01:35:27;;;;;;;;;;;;;;;14.09;64.88;101586.34;5092545;28;19958;-78
2022/05/10 01:37:56;;;;;;;;;;;;;;;14.08;64.63;101583.78;5085755;28;19920;-78
2022/05/10 01:40:25;;;;;;;;;;;;;;;13.95;64.43;101585.78;5087319;28;19927;-78
2022/05/10 01:42:55;;;;;;;;;;;;;;;14.02;64.50;101584.78;5088798;28;19924;-78
2022/05/10 01:45:55;;;;;;;;;;;;;;;13.99;64.25;101581.38;5085914;28;19924;-77
2022/05/10 01:48:21;;;;;;;;;;;;;;;14.00;64.18;101583.94;5024142;28;20317;-77
2022/05/10 01:51:10;;;;;;;;;;;;;;;13.97;64.15;101580.53;5075369;28;19919;-77
2022/05/10 01:53:36;;;;;;;;;;;;;;;14.03;64.20;101581.25;5079351;28;19931;-78
2022/05/10 01:56:03;;;;;;;;;;;;;;;14.00;64.21;101580.44;5090562;28;19975;-78
2022/05/10 01:58:30;;;;;;;;;;;;;;;14.03;63.99;101583.00;5085602;28;19927;-77
2022/05/10 02:00:58;;;;;;;;;;;;;;;13.88;64.64;101580.75;5084349;28;20011;-78
2022/05/10 02:03:35;;;;;;;;;;;;;;;13.87;64.35;101572.06;5087761;28;19927;-78
2022/05/10 02:06:19;;;;;;;;;;;;;;;13.90;64.63;101577.22;5086742;28;21764;-78
2022/05/10 02:08:56;;;;;;;;;;;;;;;13.94;64.69;101578.00;5086228;28;19913;-78
2022/05/10 02:11:22;;;;;;;;;;;;;;;13.88;64.59;101562.47;5085647;28;19946;-78
2022/05/10 02:13:50;;;;;;;;;;;;;;;13.84;64.87;101566.03;5073545;28;19924;-78
2022/05/10 02:16:36;;;;;;;;;;;;;;;13.80;65.14;101557.41;5095117;28;20007;-77
2022/05/10 02:19:04;;;;;;;;;;;;;;;13.90;65.08;101553.69;5046444;28;19920;-78
2022/05/10 02:21:32;;;;;;;;;;;;;;;13.88;65.30;101557.25;5086710;28;19927;-78
2022/05/10 02:24:03;;;;;;;;;;;;;;;13.89;65.37;101564.16;5071141;28;19916;-78
2022/05/10 02:26:33;;;;;;;;;;;;;;;13.88;65.20;101555.47;5088815;28;20292;-78
2022/05/10 02:29:10;;;;;;;;;;;;;;;13.89;65.46;101553.72;5086322;28;20533;-78
2022/05/10 02:34:29;;;;;;;;;;;;;;;13.86;65.35;101564.22;5088085;28;19989;-75
2022/05/10 02:36:54;;;;;;;;;;;;;;;13.86;65.30;101557.25;5085014;28;19927;-75
2022/05/10 02:39:20;;;;;;;;;;;;;;;13.88;65.20;101567.69;5087084;28;19928;-77
2022/05/10 02:41:46;;;;;;;;;;;;;;;13.81;65.22;101558.25;5068826;28;19920;-77
2022/05/10 02:44:11;;;;;;;;;;;;;;;13.87;65.57;101564.22;5089091;28;19916;-77
2022/05/10 02:46:37;;;;;;;;;;;;;;;13.81;65.12;101564.34;5086126;28;20423;-77
2022/05/10 02:49:02;;;;;;;;;;;;;;;13.88;65.27;101568.53;5088058;28;19923;-78
2022/05/10 02:51:27;;;;;;;;;;;;;;;13.92;65.31;101564.09;5081571;28;19940;-78
2022/05/10 02:53:53;;;;;;;;;;;;;;;13.88;65.44;101568.53;5067921;28;19969;-78
2022/05/10 02:56:22;;;;;;;;;;;;;;;13.89;65.71;101561.56;5082886;28;19916;-78
2022/05/10 02:59:03;;;;;;;;;;;;;;;13.89;65.52;101564.16;5088806;28;20016;-78
2022/05/10 03:01:47;;;;;;;;;;;;;;;13.82;65.55;101560.00;5086436;28;19923;-78
2022/05/10 03:04:13;;;;;;;;;;;;;;;13.77;65.49;101566.16;5085204;28;20476;-78
2022/05/10 03:06:39;;;;;;;;;;;;;;;13.86;64.44;101554.66;5088390;28;19920;-78
2022/05/10 03:09:05;;;;;;;;;;;;;;;13.76;64.39;101559.22;5087030;28;20352;-78
2022/05/10 03:11:31;;;;;;;;;;;;;;;13.71;64.17;101545.41;5086029;28;19915;-78
2022/05/10 03:13:56;;;;;;;;;;;;;;;13.87;63.55;101551.16;5083256;28;20300;-77
2022/05/10 03:16:23;;;;;;;;;;;;;;;13.75;63.86;101546.19;5085224;28;19928;-77
2022/05/10 03:18:49;;;;;;;;;;;;;;;13.76;63.72;101543.53;5087105;28;19928;-77
2022/05/10 03:21:14;;;;;;;;;;;;;;;13.73;64.14;101541.00;5082038;28;20642;-77
2022/05/10 03:23:39;;;;;;;;;;;;;;;13.76;64.23;101538.31;5066177;28;19916;-77
2022/05/10 03:26:05;;;;;;;;;;;;;;;13.75;64.63;101533.13;5085953;28;20420;-77
2022/05/10 03:28:31;;;;;;;;;;;;;;;13.80;64.67;101531.28;5085777;28;19920;-77
2022/05/10 03:30:56;;;;;;;;;;;;;;;13.72;65.12;101534.06;5081785;28;19975;-77
2022/05/10 03:33:22;;;;;;;;;;;;;;;13.72;64.88;101534.06;5092635;28;19924;-77
2022/05/10 03:35:47;;;;;;;;;;;;;;;13.81;64.87;101519.09;5090339;28;20342;-77
2022/05/10 03:38:13;;;;;;;;;;;;;;;13.73;64.91;101527.94;5088681;28;19931;-77
2022/05/10 03:40:38;;;;;;;;;;;;;;;13.78;64.61;101530.47;5082614;28;19924;-77
2022/05/10 03:43:06;;;;;;;;;;;;;;;13.80;64.49;101520.84;5062706;28;19924;-77
2022/05/10 03:45:31;;;;;;;;;;;;;;;13.76;64.80;101517.44;5083852;28;19924;-77
2022/05/10 03:47:57;;;;;;;;;;;;;;;13.73;64.82;101527.06;5092669;28;19974;-77
2022/05/10 03:50:23;;;;;;;;;;;;;;;13.80;64.60;101513.00;5085549;28;19931;-77
2022/05/10 03:52:49;;;;;;;;;;;;;;;13.83;64.17;101512.94;5088154;28;19970;-75
2022/05/10 03:55:19;;;;;;;;;;;;;;;13.70;64.54;101522.78;5090352;28;19972;-75
2022/05/10 03:57:45;;;;;;;;;;;;;;;13.83;64.55;101518.16;5082589;28;19924;-77
2022/05/10 04:00:12;;;;;;;;;;;;;;;13.81;64.56;101511.25;5067080;28;19935;-77
2022/05/10 04:02:38;;;;;;;;;;;;;;;13.63;65.11;101515.09;5092138;28;20003;-77
2022/05/10 04:05:04;;;;;;;;;;;;;;;13.64;65.25;101511.59;5088020;28;20015;-77
2022/05/10 04:07:30;;;;;;;;;;;;;;;13.64;64.87;101520.28;5087761;28;19924;-77
2022/05/10 04:09:55;;;;;;;;;;;;;;;13.71;64.93;101516.69;5087853;28;19928;-75
2022/05/10 04:12:20;;;;;;;;;;;;;;;13.69;64.93;101515.00;5088595;28;19924;-75
2022/05/10 04:14:45;;;;;;;;;;;;;;;13.68;65.02;101514.13;5067628;28;20308;-75
2022/05/10 04:17:11;;;;;;;;;;;;;;;13.76;64.38;101508.72;5086805;28;19927;-75
2022/05/10 04:19:36;;;;;;;;;;;;;;;13.86;64.18;101512.00;5088130;28;20365;-75
2022/05/10 04:22:01;;;;;;;;;;;;;;;13.79;64.54;101510.44;5086000;28;20006;-75
2022/05/10 04:24:27;;;;;;;;;;;;;;;13.75;65.03;101512.25;5092894;28;19997;-75
2022/05/10 04:26:52;;;;;;;;;;;;;;;13.85;64.10;101507.69;5089230;28;19920;-78
2022/05/10 04:29:17;;;;;;;;;;;;;;;13.91;63.98;101510.16;5068150;28;20014;-78
2022/05/10 04:31:43;;;;;;;;;;;;;;;13.78;64.41;101512.19;5094157;28;19924;-78
2022/05/10 04:34:08;;;;;;;;;;;;;;;13.85;64.07;101512.91;5093914;28;20596;-78
2022/05/10 04:36:34;;;;;;;;;;;;;;;13.85;64.49;101505.91;5090732;28;19931;-78
2022/05/10 04:38:59;;;;;;;;;;;;;;;13.84;64.23;101508.56;5073787;28;19927;-78
2022/05/10 04:41:29;;;;;;;;;;;;;;;13.83;64.84;101510.31;5069309;28;20564;-78
2022/05/10 04:43:56;;;;;;;;;;;;;;;13.82;64.87;101508.59;5090493;28;19920;-78
2022/05/10 04:46:21;;;;;;;;;;;;;;;13.86;64.07;101512.88;5062012;28;20335;-77
2022/05/10 04:48:46;;;;;;;;;;;;;;;13.90;64.21;101506.69;5087226;28;19927;-77
2022/05/10 04:51:12;;;;;;;;;;;;;;;13.93;64.19;101519.69;5070500;28;20401;-77
2022/05/10 04:53:38;;;;;;;;;;;;;;;13.75;64.70;101513.13;5053954;28;19920;-77
2022/05/10 04:56:03;;;;;;;;;;;;;;;13.82;64.64;101511.19;5090670;28;19939;-77
2022/05/10 04:58:29;;;;;;;;;;;;;;;13.87;64.77;101513.72;5067941;28;20385;-77
2022/05/10 05:00:56;;;;;;;;;;;;;;;13.89;64.56;101518.00;5087585;28;19920;-77
2022/05/10 05:03:21;;;;;;;;;;;;;;;13.87;65.50;101514.59;5086517;28;19931;-77
2022/05/10 05:05:46;;;;;;;;;;;;;;;13.93;65.17;101508.38;5089594;28;20487;-78
2022/05/10 05:08:12;;;;;;;;;;;;;;;13.95;64.79;101511.78;5088297;28;19931;-78
2022/05/10 05:10:37;;;;;;;;;;;;;;;13.95;65.13;101511.78;5090170;28;19924;-78
2022/05/10 05:13:02;;;;;;;;;;;;;;;14.00;65.03;101517.75;5087885;28;19975;-78
2022/05/10 05:15:28;;;;;;;;;;;;;;;14.05;65.00;101519.41;5084925;28;20026;-78
2022/05/10 05:17:53;;;;;;;;;;;;;;;14.02;65.12;101519.47;5089725;28;19935;-78
2022/05/10 05:20:18;;;;;;;;;;;;;;;14.08;64.82;101514.09;5085706;28;20007;-78
2022/05/10 05:22:44;;;;;;;;;;;;;;;14.04;64.56;101522.03;5087348;28;19928;-78
2022/05/10 05:25:09;;;;;;;;;;;;;;;14.08;65.12;101521.94;5088399;28;19928;-78
2022/05/10 05:27:35;;;;;;;;;;;;;;;14.14;64.90;101526.16;5073440;28;19920;-78
2022/05/10 05:30:01;;;;;;;;;;;;;;;14.08;65.17;101523.69;5089077;28;19941;-78
2022/05/10 05:32:31;;;;;;;;;;;;;;;14.17;64.79;101524.34;5084477;28;19923;-77
2022/05/10 05:34:56;;;;;;;;;;;;;;;14.14;65.27;101520.94;5083225;28;19944;-77
2022/05/10 05:37:34;;;;;;;;;;;;;;;14.24;64.33;101525.03;5091945;28;20301;-77
2022/05/10 05:40:00;;;;;;;;;;;;;;;14.26;64.16;101528.47;5077684;28;20376;-77
2022/05/10 05:42:25;;;;;;;;;;;;;;;14.25;64.40;101526.75;5095752;28;19972;-78
2022/05/10 05:44:51;;;;;;;;;;;;;;;14.24;65.52;101525.03;5089292;28;20559;-78
2022/05/10 05:47:17;;;;;;;;;;;;;;;14.31;64.96;101524.84;5087071;28;19986;-78
2022/05/10 05:49:42;;;;;;;;;;;;;;;14.28;65.18;101524.94;5090209;28;19931;-78
2022/05/10 05:52:07;;;;;;;;;;;;;;;14.27;64.74;101520.59;5071951;28;19921;-78
2022/05/10 05:54:33;;;;;;;;;;;;;;;14.29;65.49;101524.00;5085883;28;20625;-77
2022/05/10 05:57:02;;;;;;;;;;;;;;;14.35;65.07;101522.16;5085878;28;19966;-77
2022/05/10 05:59:27;;;;;;;;;;;;;;;14.38;65.29;101522.09;5086350;28;19974;-77
2022/05/10 06:01:53;;;;;;;;;;;;;;;14.47;64.40;101521.88;5082464;28;20396;-75
2022/05/10 06:04:18;;;;;;;;;;;;;;;14.52;63.84;101518.22;5081301;28;20015;-75
2022/05/10 06:06:44;;;;;;;;;;;;;;;14.57;63.91;101516.34;5086982;28;19928;-75
2022/05/10 06:09:09;;;;;;;;;;;;;;;14.62;64.51;101517.09;5083292;28;19959;-75
2022/05/10 06:11:34;;;;;;;;;;;;;;;14.60;66.65;101516.28;5090102;28;20010;-78
2022/05/10 06:14:01;;;;;;;;;;;;;;;14.66;65.42;101507.41;5095543;28;19916;-78
2022/05/10 06:16:27;;;;;;;;;;;;;;;14.79;63.88;101511.47;5089806;28;19932;-78
2022/05/10 06:18:52;;;;;;;;;;;;;;;14.82;64.09;101514.88;5092501;28;19927;-79
2022/05/10 06:21:17;;;;;;;;;;;;;;;14.88;63.42;101513.84;5093080;28;19931;-79
2022/05/10 06:23:43;;;;;;;;;;;;;;;14.95;63.04;101514.53;5093375;28;19923;-79
2022/05/10 06:26:08;;;;;;;;;;;;;;;14.99;62.54;101510.91;5092300;28;19920;-79
2022/05/10 06:28:37;;;;;;;;;;;;;;;15.05;62.84;101506.38;5074475;28;19920;-79
2022/05/10 06:31:05;;;;;;;;;;;;;;;15.09;62.87;101504.53;5090331;28;19967;-79
2022/05/10 06:33:30;;;;;;;;;;;;;;;15.10;62.54;101501.00;5076725;28;19985;-79
2022/05/10 06:35:56;;;;;;;;;;;;;;;15.18;62.40;101502.53;5092217;28;20473;-79
2022/05/10 06:38:27;;;;;;;;;;;;;;;15.22;61.67;101501.53;5069561;28;19927;-77
2022/05/10 06:40:52;;;;;;;;;;;;;;;15.28;61.95;101505.72;5085257;28;20428;-77
2022/05/10 06:43:18;;;;;;;;;;;;;;;15.29;62.43;101496.97;5090948;28;19970;-77
2022/05/10 06:45:43;;;;;;;;;;;;;;;15.30;62.09;101493.47;5089063;28;19923;-75
2022/05/10 06:48:09;;;;;;;;;;;;;;;15.30;62.35;101494.28;5070153;28;20401;-75
2022/05/10 06:50:36;;;;;;;;;;;;;;;15.29;62.56;101497.84;5082695;28;19916;-75
2022/05/10 06:53:01;;;;;;;;;;;;;;;15.34;62.28;101485.47;5083651;28;19924;-75
2022/05/10 06:55:28;;;;;;;;;;;;;;;15.35;62.57;101484.56;5089785;28;19924;-75
2022/05/10 06:57:53;;;;;;;;;;;;;;;15.35;63.14;101491.56;5089385;28;20379;-75
2022/05/10 07:00:19;;;;;;;;;;;;;;;15.37;62.28;101479.28;5093299;28;19924;-76
2022/05/10 07:02:45;;;;;;;;;;;;;;;15.39;62.42;101480.13;5090267;28;19927;-75
2022/05/10 07:05:11;;;;;;;;;;;;;;;15.35;63.09;101474.09;5085113;28;19922;-75
2022/05/10 07:07:36;;;;;;;;;;;;;;;15.39;63.03;101477.50;5082525;28;19920;-75
2022/05/10 07:10:03;;;;;;;;;;;;;;;15.45;63.10;101477.31;5090106;28;19943;-75
2022/05/10 07:12:28;;;;;;;;;;;;;;;15.43;62.97;101472.09;5082899;28;19924;-75
2022/05/10 07:14:53;;;;;;;;;;;;;;;15.48;62.69;101469.38;5064987;28;19932;-75
2022/05/10 07:17:19;;;;;;;;;;;;;;;15.51;63.16;101463.19;5089587;28;19912;-75
2022/05/10 07:19:44;;;;;;;;;;;;;;;15.51;62.86;101463.19;5085208;28;20007;-75
2022/05/10 07:22:09;;;;;;;;;;;;;;;15.46;63.35;101465.06;5085743;28;20266;-75
2022/05/10 07:24:35;;;;;;;;;;;;;;;15.47;63.19;101462.41;5078701;28;19924;-75
2022/05/10 07:27:00;;;;;;;;;;;;;;;15.45;62.90;101463.34;5092061;28;20629;-76
2022/05/10 07:29:26;;;;;;;;;;;;;;;15.51;63.19;101468.41;5084085;28;19912;-75
2022/05/10 07:31:53;;;;;;;;;;;;;;;15.46;63.27;101467.66;5061005;28;19932;-75
2022/05/10 07:34:18;;;;;;;;;;;;;;;15.47;62.43;101465.03;5069782;28;19935;-75
2022/05/10 07:36:43;;;;;;;;;;;;;;;15.45;63.43;101465.97;5091467;28;19924;-75
2022/05/10 07:39:12;;;;;;;;;;;;;;;15.49;63.23;101472.81;5083346;28;20514;-75
2022/05/10 07:41:39;;;;;;;;;;;;;;;15.48;63.46;101465.88;5090776;28;19920;-75
2022/05/10 07:44:05;;;;;;;;;;;;;;;15.51;63.48;101461.38;5085904;28;19927;-75
2022/05/10 07:46:30;;;;;;;;;;;;;;;15.46;63.78;101455.44;5082420;28;19920;-75
2022/05/10 07:48:56;;;;;;;;;;;;;;;15.48;63.58;101456.28;5087857;28;20000;-75
2022/05/10 07:51:21;;;;;;;;;;;;;;;15.44;64.18;101454.66;5085750;28;19930;-75
2022/05/10 07:53:47;;;;;;;;;;;;;;;15.42;64.41;101453.84;5075027;28;19927;-77
2022/05/10 07:56:12;;;;;;;;;;;;;;;15.43;64.27;101450.28;5087007;28;20042;-77
2022/05/10 07:58:38;;;;;;;;;;;;;;;15.42;64.60;101452.06;5084217;28;20359;-77
2022/05/10 08:01:04;;;;;;;;;;;;;;;15.45;64.41;101447.66;5084940;28;19924;-77
2022/05/10 08:03:30;;;;;;;;;;;;;;;15.48;64.95;101450.19;5085804;28;19928;-77
2022/05/10 08:05:56;;;;;;;;;;;;;;;15.45;65.66;101447.66;5083282;28;19928;-77
2022/05/10 08:08:22;;;;;;;;;;;;;;;15.35;63.36;101449.69;5090340;28;19920;-77
2022/05/10 08:10:49;;;;;;;;;;;;;;;15.51;64.35;101444.84;5080502;28;19951;-77
2022/05/10 08:13:16;;;;;;;;;;;;;;;15.53;63.69;101436.03;5085647;28;20015;-77
2022/05/10 08:15:41;;;;;;;;;;;;;;;15.49;64.32;101437.03;5079128;28;20364;-78
2022/05/10 08:18:07;;;;;;;;;;;;;;;15.57;64.07;101437.63;5085387;28;19971;-77
2022/05/10 08:20:33;;;;;;;;;;;;;;;15.63;63.94;101434.00;5089690;28;19923;-78
2022/05/10 08:22:58;;;;;;;;;;;;;;;15.60;64.47;101432.31;5080808;28;19924;-78
2022/05/10 08:25:23;;;;;;;;;;;;;;;15.46;63.24;101431.88;5090603;28;20285;-78
2022/05/10 08:27:51;;;;;;;;;;;;;;;15.62;63.01;101427.91;5083669;28;19920;-79
2022/05/10 08:30:17;;;;;;;;;;;;;;;15.63;62.86;101426.97;5097073;28;19926;-78
2022/05/10 08:32:42;;;;;;;;;;;;;;;15.85;61.57;101416.72;5089254;28;19923;-78
2022/05/10 08:35:08;;;;;;;;;;;;;;;15.80;62.12;101418.63;5081162;28;20412;-78
2022/05/10 08:37:36;;;;;;;;;;;;;;;16.08;61.40;101422.03;5083212;28;19989;-78
2022/05/10 08:40:02;;;;;;;;;;;;;;;16.07;60.33;101427.34;5078737;28;19959;-78
2022/05/10 08:42:30;;;;;;;;;;;;;;;15.83;60.56;101416.78;5079931;28;19924;-78
2022/05/10 08:44:58;;;;;;;;;;;;;;;15.72;61.40;101421.44;5049449;28;20430;-78
2022/05/10 08:47:24;;;;;;;;;;;;;;;16.04;60.39;101416.97;5069292;28;20387;-77
2022/05/10 08:50:00;;;;;;;;;;;;;;;16.17;59.08;101411.25;5088361;28;19939;-77
2022/05/10 08:52:30;;;;;;;;;;;;;;;15.95;59.55;101413.75;5083075;28;20016;-77
2022/05/10 08:54:56;;;;;;;;;;;;;;;15.85;60.60;101401.84;5080857;28;19990;-78
2022/05/10 08:57:41;;;;;;;;;;;;;;;15.69;61.16;101407.63;5082083;28;20548;-78
2022/05/10 09:00:06;;;;;;;;;;;;;;;15.94;60.97;101401.56;5073575;28;21070;-78
2022/05/10 09:02:44;;;;;;;;;;;;;;;16.17;57.98;101398.16;5082121;28;19920;-78
2022/05/10 09:05:24;;;;;;;;;;;;;;;16.08;59.23;101400.22;5065335;28;19924;-79
2022/05/10 09:08:07;;;;;;;;;;;;;;;16.17;57.92;101402.53;5082597;28;19920;-78
2022/05/10 09:10:49;;;;;;;;;;;;;;;16.13;57.50;101396.56;5085008;28;19928;-78
2022/05/10 09:13:15;;;;;;;;;;;;;;;16.13;56.95;101393.94;5060945;28;19920;-78
2022/05/10 09:15:51;;;;;;;;;;;;;;;16.08;57.51;101398.47;5077196;28;19947;-78
2022/05/10 09:18:24;;;;;;;;;;;;;;;16.33;56.01;101386.25;5080320;28;19998;-78
2022/05/10 09:21:08;;;;;;;;;;;;;;;16.35;55.95;101388.78;5084329;28;19930;-78
2022/05/10 09:23:39;;;;;;;;;;;;;;;16.70;53.59;101379.72;5087002;28;19931;-78
2022/05/10 09:26:05;;;;;;;;;;;;;;;16.80;53.35;101379.31;5089116;28;20588;-78
2022/05/10 09:28:33;;;;;;;;;;;;;;;16.41;54.69;101372.84;5090275;28;19982;-78
2022/05/10 09:36:51;;;;;;;;;;;;;;;16.57;53.13;101368.78;5096421;28;19931;-77
2022/05/10 09:39:29;;;;;;;;;;;;;;;16.48;53.26;101367.34;5061229;28;19923;-75
2022/05/10 09:41:55;;;;;;;;;;;;;;;16.62;53.30;101364.22;5080491;28;19926;-75
2022/05/10 09:44:20;;;;;;;;;;;;;;;16.84;51.10;101361.69;5092044;28;19916;-75
2022/05/10 09:46:46;;;;;;;;;;;;;;;17.01;50.20;101349.63;5093331;28;19924;-75
2022/05/10 09:49:30;;;;;;;;;;;;;;;17.18;50.36;101363.88;5091925;28;20380;-75
2022/05/10 09:51:56;;;;;;;;;;;;;;;16.83;52.02;101360.84;5092484;28;19924;-75
2022/05/10 09:54:26;;;;;;;;;;;;;;;17.00;50.70;101354.94;5082234;28;20375;-75
2022/05/10 09:56:56;;;;;;;;;;;;;;;17.24;49.50;101359.25;5082558;28;20402;-75
2022/05/10 09:59:21;;;;;;;;;;;;;;;17.38;48.04;101349.03;5099052;28;20772;-75
2022/05/10 10:01:48;;;;;;;;;;;;;;;17.46;47.80;101352.22;5084044;28;19924;-75
2022/05/10 10:04:20;;;;;;;;;;;;;;;17.62;47.06;101341.97;5065285;28;20336;-75
2022/05/10 10:06:45;;;;;;;;;;;;;;;16.87;50.28;101346.69;5068628;28;19924;-75
2022/05/10 10:09:27;;;;;;;;;;;;;;;16.44;53.28;101350.00;5089703;28;20385;-78
2022/05/10 10:11:52;;;;;;;;;;;;;;;16.53;52.37;101346.19;5080112;28;19916;-79
2022/05/10 10:14:32;;;;;;;;;;;;;;;16.47;53.35;101338.53;5064311;28;20307;-78
2022/05/10 10:16:57;;;;;;;;;;;;;;;16.83;50.74;101342.47;5083257;28;19920;-79
2022/05/10 10:19:29;;;;;;;;;;;;;;;16.76;50.57;101330.47;5086053;28;19920;-78
2022/05/10 10:22:00;;;;;;;;;;;;;;;16.88;49.69;101330.00;5084591;28;20393;-78
2022/05/10 10:24:38;;;;;;;;;;;;;;;17.37;46.34;101323.72;5099662;28;19942;-78
2022/05/10 10:27:08;;;;;;;;;;;;;;;17.31;46.84;101325.72;5084928;28;19923;-78
2022/05/10 10:29:33;;;;;;;;;;;;;;;17.49;46.66;101322.34;5083789;28;19973;-77
2022/05/10 10:32:02;;;;;;;;;;;;;;;17.47;45.35;101316.31;5089563;28;19924;-77
2022/05/10 10:34:46;;;;;;;;;;;;;;;18.02;43.20;101309.63;5083453;28;19928;-77
2022/05/10 10:37:15;;;;;;;;;;;;;;;17.70;45.97;101323.28;5089028;28;19920;-77
2022/05/10 10:39:43;;;;;;;;;;;;;;;17.44;47.08;101312.03;5086135;28;20359;-77
2022/05/10 10:42:16;;;;;;;;;;;;;;;17.32;48.23;101314.31;5084947;28;20371;-77
2022/05/10 10:44:44;;;;;;;;;;;;;;;17.53;47.95;101308.19;5100060;28;20159;-77
2022/05/10 10:47:21;;;;;;;;;;;;;;;17.39;48.23;101307.88;5075208;28;20393;-77
2022/05/10 10:50:05;;;;;;;;;;;;;;;17.67;46.41;101311.13;5088549;28;19926;-77
2022/05/10 10:52:31;;;;;;;;;;;;;;;17.36;48.03;101306.22;5089042;28;20034;-77
2022/05/10 10:54:57;;;;;;;;;;;;;;;17.71;45.89;101309.22;5095356;28;20014;-78
2022/05/10 10:57:43;;;;;;;;;;;;;;;17.15;48.05;101309.72;5077015;28;19927;-77
2022/05/10 11:00:18;;;;;;;;;;;;;;;17.67;45.61;101302.38;5084724;28;19966;-77
2022/05/10 11:02:44;;;;;;;;;;;;;;;17.80;45.69;101295.72;5082027;28;19912;-75
2022/05/10 11:05:22;;;;;;;;;;;;;;;17.83;46.89;101300.84;5092494;28;19934;-75
2022/05/10 11:07:56;;;;;;;;;;;;;;;18.12;43.97;101287.28;5096124;28;19966;-75
2022/05/10 11:10:25;;;;;;;;;;;;;;;17.70;46.63;101297.88;5067131;28;19923;-75
2022/05/10 11:13:05;;;;;;;;;;;;;;;17.97;44.66;101290.56;5095274;28;19947;-75
2022/05/10 11:15:53;;;;;;;;;;;;;;;18.03;44.42;101288.53;5091147;28;19939;-78
2022/05/10 11:18:36;;;;;;;;;;;;;;;18.27;43.45;101276.09;5082900;28;20385;-75
2022/05/10 11:21:22;;;;;;;;;;;;;;;17.11;49.74;101284.53;5083772;28;19920;-76
2022/05/10 11:24:14;;;;;;;;;;;;;;;17.39;49.35;101281.63;5088892;28;19923;-76
2022/05/10 11:26:42;;;;;;;;;;;;;;;16.77;51.47;101274.47;5081904;28;20057;-76
2022/05/10 11:29:15;;;;;;;;;;;;;;;17.25;50.38;101266.44;5085937;28;19923;-75
2022/05/10 11:31:58;;;;;;;;;;;;;;;18.05;45.66;101270.06;5089247;28;19920;-78
2022/05/10 11:34:26;;;;;;;;;;;;;;;17.40;48.53;101271.06;5065615;28;19928;-78
2022/05/10 11:36:53;;;;;;;;;;;;;;;17.75;46.88;101260.88;5084880;28;19955;-78
2022/05/10 11:39:18;;;;;;;;;;;;;;;17.59;48.83;101261.50;5081716;28;20018;-78
2022/05/10 11:41:47;;;;;;;;;;;;;;;17.48;48.81;101252.34;5090357;28;20027;-78
2022/05/10 11:44:31;;;;;;;;;;;;;;;17.46;49.79;101248.94;5088985;28;19928;-78
2022/05/10 11:46:57;;;;;;;;;;;;;;;17.94;47.48;101253.91;5082705;28;19927;-77
2022/05/10 11:49:38;;;;;;;;;;;;;;;17.79;46.66;101255.44;5084938;28;20018;-78
2022/05/10 11:52:22;;;;;;;;;;;;;;;17.93;46.78;101253.06;5091617;28;19928;-75
2022/05/10 11:54:50;;;;;;;;;;;;;;;18.05;45.46;101247.25;5089758;28;20393;-77
2022/05/10 11:57:17;;;;;;;;;;;;;;;18.62;43.81;101240.31;5063939;28;19924;-77
2022/05/10 11:59:44;;;;;;;;;;;;;;;18.10;46.67;101241.78;5090329;28;19920;-77
2022/05/10 12:02:27;;;;;;;;;;;;;;;18.10;47.09;101253.16;5090792;28;19923;-77
2022/05/10 12:05:12;;;;;;;;;;;;;;;17.56;48.61;101247.66;5073132;28;20018;-76
2022/05/10 12:07:47;;;;;;;;;;;;;;;18.06;47.93;101245.50;5086237;28;20006;-77
2022/05/10 12:10:22;;;;;;;;;;;;;;;18.06;47.88;101241.09;5089437;28;19978;-79
2022/05/10 12:12:47;;;;;;;;;;;;;;;18.41;45.61;101239.50;5088833;28;20480;-78
2022/05/10 12:21:22;;;;;;;;;;;;;;;17.82;49.02;101226.38;5085293;28;19911;-78
2022/05/10 12:24:06;;;;;;;;;;;;;;;18.13;46.27;101220.59;5085998;28;19920;-78
2022/05/10 12:26:40;;;;;;;;;;;;;;;18.25;47.09;101211.31;5085763;28;19924;-79
2022/05/10 12:29:07;;;;;;;;;;;;;;;18.05;47.94;101213.06;5066614;28;19920;-78
2022/05/10 12:31:32;;;;;;;;;;;;;;;17.93;48.32;101213.63;5084191;28;19981;-78
2022/05/10 12:34:08;;;;;;;;;;;;;;;17.85;48.57;101209.63;5086385;28;19919;-78
2022/05/10 12:36:35;;;;;;;;;;;;;;;17.76;49.05;101210.03;5080053;28;19924;-78
2022/05/10 12:39:30;;;;;;;;;;;;;;;18.13;46.93;101194.31;5068466;28;19923;-78
2022/05/10 12:42:06;;;;;;;;;;;;;;;18.21;47.88;101197.47;5082470;28;19911;-78
2022/05/10 12:44:41;;;;;;;;;;;;;;;17.87;48.63;101198.13;5084481;28;19916;-77
2022/05/10 12:47:12;;;;;;;;;;;;;;;18.21;47.42;101201.88;5087018;28;20010;-77
2022/05/10 12:49:53;;;;;;;;;;;;;;;17.84;47.27;101193.00;5082134;28;19924;-77
2022/05/10 12:52:22;;;;;;;;;;;;;;;17.91;47.96;101189.19;5088359;28;19920;-77
2022/05/10 12:54:50;;;;;;;;;;;;;;;18.40;44.00;101179.03;5092218;28;19924;-77
2022/05/10 12:57:37;;;;;;;;;;;;;;;18.60;43.83;101185.09;5087453;28;19924;-77
2022/05/10 13:00:07;;;;;;;;;;;;;;;18.68;43.92;101188.25;5085144;28;20377;-77
2022/05/10 13:02:34;;;;;;;;;;;;;;;18.52;44.55;101176.72;5086994;28;19967;-77